Time;durP1;ratioP1;P1;durP2;ratioP2;P2;SDS_P1;SDS_P2;PMS_P1;PMS_P2;Temp;Humidity;BMP_temperature;BMP_pressure;BME280_temperature;BME280_humidity;BME280_pressure;Samples;Min_cycle;Max_cycle;Signal;HPM_P1;HPM_P2
2023/04/21 00:01:17;;;;;;;25.52;14.65;;;;;;;;;;5003847;28;20052;-60
2023/04/21 00:03:43;;;;;;;23.27;14.93;;;;;;;;;;5003689;28;20053;-61
2023/04/21 00:06:09;;;;;;;27.17;15.00;;;;;;;;;;5003200;28;20065;-61
2023/04/21 00:08:39;;;;;;;26.05;14.70;;;;;;;;;;4982026;28;20199;-62
2023/04/21 00:11:06;;;;;;;28.58;14.95;;;;;;;;;;4984265;28;20043;-60
2023/04/21 00:13:33;;;;;;;26.80;14.40;;;;;;;;;;4984145;28;20046;-60
2023/04/21 00:15:59;;;;;;;30.10;14.68;;;;;;;;;;4983959;28;20548;-61
2023/04/21 00:18:26;;;;;;;26.20;14.88;;;;;;;;;;4998618;28;20056;-60
2023/04/21 00:20:52;;;;;;;27.30;13.63;;;;;;;;;;4984059;28;20104;-60
2023/04/21 00:23:18;;;;;;;29.42;14.40;;;;;;;;;;4983042;28;20369;-61
2023/04/21 00:25:44;;;;;;;23.90;12.48;;;;;;;;;;4983578;28;20058;-61
2023/04/21 00:28:11;;;;;;;21.90;13.43;;;;;;;;;;4984015;28;20053;-61
2023/04/21 00:30:37;;;;;;;28.50;12.90;;;;;;;;;;4983801;28;20034;-61
2023/04/21 00:33:03;;;;;;;29.27;13.38;;;;;;;;;;4984192;28;20400;-61
2023/04/21 00:35:29;;;;;;;23.92;12.75;;;;;;;;;;4983927;28;20051;-61
2023/04/21 00:37:55;;;;;;;25.52;12.35;;;;;;;;;;4983439;28;20050;-60
2023/04/21 00:40:22;;;;;;;26.48;12.85;;;;;;;;;;4984087;28;20456;-60
2023/04/21 00:42:48;;;;;;;25.83;13.55;;;;;;;;;;4983848;28;20043;-60
2023/04/21 00:45:14;;;;;;;19.73;12.02;;;;;;;;;;4981914;28;20047;-61
2023/04/21 00:47:40;;;;;;;21.08;11.70;;;;;;;;;;4983628;28;20082;-61
2023/04/21 00:50:07;;;;;;;25.60;12.43;;;;;;;;;;4983992;28;20069;-61
2023/04/21 00:52:33;;;;;;;24.40;13.40;;;;;;;;;;4982977;28;20046;-60
2023/04/21 00:54:59;;;;;;;22.55;12.80;;;;;;;;;;4983755;28;20050;-61
2023/04/21 00:57:27;;;;;;;23.52;12.55;;;;;;;;;;4988303;28;20054;-61
2023/04/21 00:59:54;;;;;;;22.00;11.80;;;;;;;;;;5002326;28;20400;-61
2023/04/21 01:02:21;;;;;;;26.17;12.52;;;;;;;;;;4986862;28;20057;-61
2023/04/21 01:04:47;;;;;;;21.38;12.75;;;;;;;;;;4982929;28;20050;-61
2023/04/21 01:07:13;;;;;;;22.10;11.45;;;;;;;;;;4986841;28;20038;-61
2023/04/21 01:09:40;;;;;;;20.80;11.55;;;;;;;;;;5006663;28;20141;-61
2023/04/21 01:12:07;;;;;;;24.40;12.35;;;;;;;;;;5006469;28;20061;-61
2023/04/21 01:14:34;;;;;;;19.80;11.50;;;;;;;;;;5006831;28;20034;-62
2023/04/21 01:17:00;;;;;;;25.05;11.38;;;;;;;;;;5019306;28;20128;-61
2023/04/21 01:19:28;;;;;;;20.85;11.57;;;;;;;;;;5026869;28;20045;-61
2023/04/21 01:21:57;;;;;;;27.70;11.77;;;;;;;;;;5025528;28;20398;-61
2023/04/21 01:24:24;;;;;;;24.10;11.88;;;;;;;;;;5006246;28;20099;-61
2023/04/21 01:26:50;;;;;;;27.83;12.18;;;;;;;;;;5025137;28;20044;-60
2023/04/21 01:29:17;;;;;;;26.88;12.95;;;;;;;;;;5026485;28;20056;-60
2023/04/21 01:31:46;;;;;;;23.08;11.90;;;;;;;;;;5026275;28;20132;-60
2023/04/21 01:34:21;;;;;;;23.48;12.13;;;;;;;;;;5025586;28;20065;-60
2023/04/21 01:36:47;;;;;;;22.10;11.63;;;;;;;;;;5024131;28;20037;-60
2023/04/21 01:39:13;;;;;;;20.30;11.05;;;;;;;;;;5025780;28;20044;-60
2023/04/21 01:41:40;;;;;;;21.02;11.43;;;;;;;;;;5025450;28;20037;-60
2023/04/21 01:44:06;;;;;;;21.00;11.07;;;;;;;;;;5008180;28;20179;-60
2023/04/21 01:46:32;;;;;;;19.58;11.43;;;;;;;;;;5026232;28;20061;-60
2023/04/21 01:48:58;;;;;;;17.23;10.77;;;;;;;;;;5007593;28;20044;-60
2023/04/21 01:51:25;;;;;;;22.90;11.52;;;;;;;;;;5025968;28;20045;-60
2023/04/21 01:53:51;;;;;;;22.83;11.65;;;;;;;;;;5025004;28;20053;-61
2023/04/21 01:56:18;;;;;;;20.73;11.75;;;;;;;;;;5026177;28;20131;-60
2023/04/21 01:58:44;;;;;;;21.65;11.55;;;;;;;;;;5024668;28;20076;-60
2023/04/21 02:01:10;;;;;;;26.67;11.80;;;;;;;;;;5025651;28;20044;-60
2023/04/21 02:03:36;;;;;;;19.75;11.18;;;;;;;;;;5025490;28;20071;-60
2023/04/21 02:06:02;;;;;;;19.25;11.40;;;;;;;;;;5007657;28;20042;-60
2023/04/21 02:08:29;;;;;;;17.05;10.02;;;;;;;;;;5024407;28;20057;-61
2023/04/21 02:10:55;;;;;;;20.42;10.77;;;;;;;;;;5024852;28;20041;-59
2023/04/21 02:13:21;;;;;;;24.83;11.57;;;;;;;;;;5025081;28;20072;-60
2023/04/21 02:15:47;;;;;;;21.00;10.98;;;;;;;;;;5024919;28;20099;-60
2023/04/21 02:18:13;;;;;;;20.52;11.77;;;;;;;;;;5024585;28;20041;-60
2023/04/21 02:20:39;;;;;;;21.77;11.23;;;;;;;;;;5025266;28;20038;-61
2023/04/21 02:23:05;;;;;;;23.75;11.35;;;;;;;;;;5024565;28;20037;-60
2023/04/21 02:25:32;;;;;;;20.75;11.13;;;;;;;;;;5024908;28;20505;-60
2023/04/21 02:27:58;;;;;;;20.98;11.32;;;;;;;;;;5024916;28;20049;-60
2023/04/21 02:30:24;;;;;;;23.20;10.75;;;;;;;;;;5024971;28;20092;-61
2023/04/21 02:32:50;;;;;;;17.45;10.43;;;;;;;;;;5007351;28;20060;-61
2023/04/21 02:35:16;;;;;;;22.58;11.50;;;;;;;;;;5024945;28;20037;-60
2023/04/21 02:37:42;;;;;;;18.90;10.95;;;;;;;;;;5023894;28;20041;-60
2023/04/21 02:40:09;;;;;;;21.25;10.95;;;;;;;;;;5025001;28;20205;-61
2023/04/21 02:42:35;;;;;;;19.83;11.32;;;;;;;;;;5024627;28;20073;-62
2023/04/21 02:45:01;;;;;;;19.77;11.52;;;;;;;;;;5024624;28;20496;-60
2023/04/21 02:47:27;;;;;;;19.85;10.50;;;;;;;;;;5024828;28;20049;-60
2023/04/21 02:49:53;;;;;;;19.13;10.13;;;;;;;;;;5024705;28;20073;-60
2023/04/21 02:52:19;;;;;;;22.95;12.13;;;;;;;;;;5024195;28;20120;-61
2023/04/21 02:54:45;;;;;;;18.90;10.70;;;;;;;;;;5024611;28;20050;-61
2023/04/21 02:57:12;;;;;;;22.63;10.55;;;;;;;;;;5024249;28;20072;-60
2023/04/21 02:59:38;;;;;;;22.58;10.35;;;;;;;;;;5024309;28;20128;-61
2023/04/21 03:02:04;;;;;;;20.58;10.90;;;;;;;;;;5024762;28;20037;-60
2023/04/21 03:04:31;;;;;;;19.17;10.25;;;;;;;;;;5024629;28;20045;-60
2023/04/21 03:06:57;;;;;;;19.75;11.02;;;;;;;;;;5023516;28;20042;-60
2023/04/21 03:09:24;;;;;;;23.02;11.00;;;;;;;;;;5024546;28;20205;-60
2023/04/21 03:11:50;;;;;;;23.13;10.77;;;;;;;;;;5024562;28;20049;-61
2023/04/21 03:14:16;;;;;;;16.77;9.70;;;;;;;;;;5023919;28;20049;-60
2023/04/21 03:16:42;;;;;;;18.92;10.30;;;;;;;;;;5023865;28;20049;-61
2023/04/21 03:19:08;;;;;;;22.10;10.30;;;;;;;;;;5024119;28;20525;-62
2023/04/21 03:21:36;;;;;;;19.75;10.57;;;;;;;;;;5023764;28;20041;-61
2023/04/21 03:24:02;;;;;;;21.38;10.20;;;;;;;;;;5023983;28;20507;-61
2023/04/21 03:26:29;;;;;;;17.30;10.38;;;;;;;;;;5023931;28;20503;-61
2023/04/21 03:28:55;;;;;;;20.13;10.40;;;;;;;;;;5006019;28;20054;-61
2023/04/21 03:31:21;;;;;;;21.65;11.15;;;;;;;;;;5024471;28;20120;-61
2023/04/21 03:33:47;;;;;;;19.85;10.85;;;;;;;;;;5023934;28;20061;-61
2023/04/21 03:36:13;;;;;;;21.80;10.98;;;;;;;;;;5023388;28;20450;-62
2023/04/21 03:38:39;;;;;;;19.02;10.02;;;;;;;;;;5022892;28;20214;-62
2023/04/21 03:41:05;;;;;;;22.40;10.30;;;;;;;;;;5023867;28;20038;-61
2023/04/21 03:43:31;;;;;;;19.67;10.07;;;;;;;;;;5024096;28;20471;-62
2023/04/21 03:45:57;;;;;;;24.85;10.25;;;;;;;;;;5023570;28;20045;-60
2023/04/21 03:48:23;;;;;;;17.10;10.65;;;;;;;;;;5006373;28;20506;-60
2023/04/21 03:50:50;;;;;;;14.93;9.27;;;;;;;;;;5023884;28;20041;-60
2023/04/21 03:53:16;;;;;;;23.10;10.75;;;;;;;;;;5022919;28;20978;-61
2023/04/21 03:55:42;;;;;;;20.40;10.45;;;;;;;;;;5005246;28;20049;-60
2023/04/21 03:58:08;;;;;;;21.45;11.07;;;;;;;;;;5024074;28;20061;-61
2023/04/21 04:00:34;;;;;;;19.38;10.73;;;;;;;;;;5023804;28;20124;-60
2023/04/21 04:03:01;;;;;;;21.35;11.02;;;;;;;;;;5023692;28;20045;-61
2023/04/21 04:05:27;;;;;;;22.75;11.68;;;;;;;;;;5023754;28;20049;-61
2023/04/21 04:07:53;;;;;;;26.45;12.02;;;;;;;;;;5022621;28;20392;-61
2023/04/21 04:10:19;;;;;;;18.17;9.93;;;;;;;;;;5023693;28;20055;-60
2023/04/21 04:12:45;;;;;;;23.52;11.52;;;;;;;;;;5023012;28;20128;-60
2023/04/21 04:15:12;;;;;;;24.27;11.68;;;;;;;;;;5023184;28;20125;-61
2023/04/21 04:17:38;;;;;;;21.98;11.43;;;;;;;;;;5005827;28;20491;-60
2023/04/21 04:20:05;;;;;;;22.77;11.13;;;;;;;;;;5023833;28;20077;-60
2023/04/21 04:22:32;;;;;;;21.70;11.30;;;;;;;;;;5022506;28;20045;-61
2023/04/21 04:25:00;;;;;;;22.20;11.77;;;;;;;;;;5023004;28;20946;-61
2023/04/21 04:27:27;;;;;;;19.90;11.55;;;;;;;;;;5023486;28;20099;-60
2023/04/21 04:29:53;;;;;;;20.80;12.10;;;;;;;;;;5023370;28;20471;-61
2023/04/21 04:32:19;;;;;;;23.80;12.82;;;;;;;;;;5005475;28;20104;-60
2023/04/21 04:34:45;;;;;;;22.58;12.23;;;;;;;;;;5022833;28;20045;-59
2023/04/21 04:37:12;;;;;;;23.27;12.10;;;;;;;;;;5022388;28;20045;-60
2023/04/21 04:39:38;;;;;;;23.67;11.70;;;;;;;;;;5022983;28;20037;-60
2023/04/21 04:42:08;;;;;;;21.92;11.65;;;;;;;;;;5026624;28;20418;-60
2023/04/21 04:44:35;;;;;;;24.75;12.63;;;;;;;;;;5027344;28;20809;-64
2023/04/21 04:47:01;;;;;;;23.00;11.98;;;;;;;;;;5026865;28;20042;-61
2023/04/21 04:49:27;;;;;;;22.55;12.05;;;;;;;;;;5027238;28;20049;-61
2023/04/21 04:51:53;;;;;;;18.80;11.65;;;;;;;;;;5025048;28;20041;-61
2023/04/21 04:54:20;;;;;;;23.15;12.18;;;;;;;;;;5026845;28;20055;-60
2023/04/21 04:56:46;;;;;;;24.10;12.32;;;;;;;;;;5016207;28;20073;-60
2023/04/21 04:59:12;;;;;;;22.60;12.30;;;;;;;;;;5012678;28;20056;-60
2023/04/21 05:01:40;;;;;;;22.63;14.68;;;;;;;;;;5017049;28;20513;-60
2023/04/21 05:04:06;;;;;;;40.35;29.20;;;;;;;;;;4995045;28;20038;-59
2023/04/21 05:06:33;;;;;;;29.38;20.35;;;;;;;;;;5015184;28;20045;-59
2023/04/21 05:08:59;;;;;;;38.50;14.68;;;;;;;;;;5013746;28;20054;-60
2023/04/21 05:11:25;;;;;;;22.92;13.38;;;;;;;;;;5013286;28;20049;-60
2023/04/21 05:13:51;;;;;;;24.50;15.38;;;;;;;;;;5015617;28;20057;-59
2023/04/21 05:16:17;;;;;;;32.05;18.30;;;;;;;;;;5012367;28;20056;-59
2023/04/21 05:18:43;;;;;;;41.20;23.80;;;;;;;;;;5016884;28;20049;-59
2023/04/21 05:21:09;;;;;;;75.10;46.50;;;;;;;;;;4999927;28;20037;-59
2023/04/21 05:23:35;;;;;;;95.32;58.50;;;;;;;;;;5025646;28;20045;-59
2023/04/21 05:26:02;;;;;;;47.42;27.77;;;;;;;;;;5025799;28;20450;-59
2023/04/21 05:28:29;;;;;;;33.90;18.85;;;;;;;;;;5026205;28;20099;-62
2023/04/21 05:30:56;;;;;;;35.22;20.55;;;;;;;;;;5007728;28;20499;-60
2023/04/21 05:33:22;;;;;;;40.83;26.77;;;;;;;;;;5026345;28;20048;-61
2023/04/21 05:35:48;;;;;;;34.65;23.08;;;;;;;;;;5025454;28;20041;-61
2023/04/21 05:38:14;;;;;;;19.10;11.57;;;;;;;;;;5013384;28;20096;-61
2023/04/21 05:40:40;;;;;;;23.45;13.32;;;;;;;;;;5017229;28;20034;-61
2023/04/21 05:43:06;;;;;;;25.73;15.90;;;;;;;;;;5022026;28;20165;-60
2023/04/21 05:45:32;;;;;;;30.80;17.85;;;;;;;;;;4992688;28;20046;-61
2023/04/21 05:47:58;;;;;;;23.73;13.85;;;;;;;;;;5016652;28;20037;-60
2023/04/21 05:50:27;;;;;;;21.40;12.10;;;;;;;;;;5016395;28;20044;-60
2023/04/21 05:52:53;;;;;;;22.38;13.43;;;;;;;;;;5021789;28;20515;-61
2023/04/21 05:55:19;;;;;;;23.65;13.52;;;;;;;;;;5020782;28;20060;-61
2023/04/21 05:57:45;;;;;;;20.50;11.63;;;;;;;;;;4998035;28;20045;-60
2023/04/21 06:00:12;;;;;;;22.42;12.65;;;;;;;;;;5018097;28;20041;-60
2023/04/21 06:02:41;;;;;;;27.10;17.60;;;;;;;;;;5023578;28;20135;-60
2023/04/21 06:05:07;;;;;;;21.45;12.57;;;;;;;;;;5016364;28;20511;-60
2023/04/21 06:14:45;;;;;;;24.23;12.63;;;;;;;;;;5022845;28;20155;-61
2023/04/21 06:17:15;;;;;;;29.45;16.73;;;;;;;;;;5023648;28;20406;-61
2023/04/21 06:22:45;;;;;;;28.00;16.65;;;;;;;;;;5017596;28;20133;-59
2023/04/21 06:25:12;;;;;;;37.70;20.67;;;;;;;;;;5023778;28;20038;-60
2023/04/21 06:27:38;;;;;;;47.97;26.88;;;;;;;;;;5022415;28;20470;-60
2023/04/21 06:30:04;;;;;;;96.43;54.63;;;;;;;;;;5021065;28;20037;-60
2023/04/21 06:32:30;;;;;;;77.35;46.53;;;;;;;;;;5021990;28;20041;-60
2023/04/21 06:34:56;;;;;;;30.33;20.20;;;;;;;;;;5022306;28;20037;-59
2023/04/21 06:37:22;;;;;;;22.60;12.02;;;;;;;;;;5018660;28;20038;-62
2023/04/21 06:39:49;;;;;;;43.22;27.25;;;;;;;;;;5023052;28;20141;-60
2023/04/21 06:42:15;;;;;;;56.03;27.20;;;;;;;;;;5021411;28;20037;-60
2023/04/21 06:44:41;;;;;;;26.15;15.38;;;;;;;;;;5022175;28;20471;-60
2023/04/21 06:47:07;;;;;;;43.13;23.02;;;;;;;;;;5002669;28;20048;-60
2023/04/21 06:49:33;;;;;;;27.60;12.90;;;;;;;;;;5022123;28;20033;-61
2023/04/21 06:51:59;;;;;;;22.15;11.45;;;;;;;;;;5003006;28;20648;-61
2023/04/21 06:54:25;;;;;;;23.63;11.57;;;;;;;;;;5020429;28;20049;-61
2023/04/21 06:56:51;;;;;;;16.02;10.20;;;;;;;;;;5021179;28;20044;-61
2023/04/21 06:59:18;;;;;;;17.58;10.48;;;;;;;;;;5019684;28;20048;-60
2023/04/21 07:01:44;;;;;;;19.65;11.10;;;;;;;;;;5020760;28;20049;-60
2023/04/21 07:04:10;;;;;;;24.27;11.40;;;;;;;;;;5022840;28;20099;-60
2023/04/21 07:06:42;;;;;;;18.90;11.15;;;;;;;;;;5019199;28;20049;-63
2023/04/21 07:09:08;;;;;;;24.08;11.35;;;;;;;;;;5020180;28;20058;-62
2023/04/21 07:11:34;;;;;;;18.65;11.40;;;;;;;;;;5019017;28;20033;-60
2023/04/21 07:14:01;;;;;;;19.08;10.35;;;;;;;;;;5019186;28;20038;-59
2023/04/21 07:16:27;;;;;;;15.05;10.13;;;;;;;;;;5023687;28;20041;-59
2023/04/21 07:18:53;;;;;;;23.35;12.85;;;;;;;;;;5001107;28;20060;-59
2023/04/21 07:21:20;;;;;;;17.70;10.63;;;;;;;;;;5022081;28;20046;-59
2023/04/21 07:23:46;;;;;;;20.42;9.57;;;;;;;;;;5019693;28;20063;-59
2023/04/21 07:26:12;;;;;;;22.35;10.15;;;;;;;;;;5019526;28;20033;-60
2023/04/21 07:28:39;;;;;;;16.88;10.15;;;;;;;;;;5023382;28;20132;-61
2023/04/21 07:31:06;;;;;;;17.35;10.13;;;;;;;;;;5023202;28;20037;-60
2023/04/21 07:33:32;;;;;;;23.17;9.88;;;;;;;;;;5017578;28;20047;-60
2023/04/21 07:35:58;;;;;;;39.55;20.88;;;;;;;;;;5018281;28;20483;-60
2023/04/21 07:38:25;;;;;;;19.92;11.80;;;;;;;;;;5018559;28;20068;-61
2023/04/21 07:40:51;;;;;;;25.63;14.38;;;;;;;;;;5023002;28;20402;-60
2023/04/21 07:43:18;;;;;;;20.20;10.93;;;;;;;;;;5013340;28;20449;-60
2023/04/21 07:45:45;;;;;;;21.00;11.48;;;;;;;;;;5022393;28;20044;-59
2023/04/21 07:48:11;;;;;;;22.52;9.93;;;;;;;;;;5018122;28;20048;-60
2023/04/21 07:50:37;;;;;;;20.70;10.20;;;;;;;;;;5019046;28;20045;-61
2023/04/21 07:53:04;;;;;;;19.30;10.70;;;;;;;;;;5022230;28;20049;-59
2023/04/21 07:55:30;;;;;;;25.15;11.75;;;;;;;;;;5017108;28;20487;-60
2023/04/21 07:57:56;;;;;;;20.67;11.90;;;;;;;;;;5022204;28;20041;-60
2023/04/21 08:00:22;;;;;;;29.15;14.68;;;;;;;;;;5017864;28;20129;-59
2023/04/21 08:02:48;;;;;;;18.38;10.57;;;;;;;;;;5022002;28;20045;-59
2023/04/21 08:05:14;;;;;;;29.48;15.45;;;;;;;;;;5021560;28;20081;-59
2023/04/21 08:07:40;;;;;;;24.52;12.93;;;;;;;;;;5018714;28;20046;-59
2023/04/21 08:10:07;;;;;;;32.85;13.93;;;;;;;;;;5004639;28;20111;-59
2023/04/21 08:12:33;;;;;;;30.33;13.68;;;;;;;;;;5017229;28;20483;-60
2023/04/21 08:15:04;;;;;;;26.30;11.40;;;;;;;;;;5003943;28;20100;-59
2023/04/21 08:17:30;;;;;;;42.47;15.60;;;;;;;;;;5002313;28;20634;-59
2023/04/21 08:19:56;;;;;;;28.80;10.05;;;;;;;;;;5025109;28;20046;-61
2023/04/21 08:22:23;;;;;;;22.23;11.45;;;;;;;;;;5020295;28;20037;-59
2023/04/21 08:24:49;;;;;;;19.67;9.77;;;;;;;;;;5024145;28;20677;-60
2023/04/21 08:27:15;;;;;;;17.77;9.48;;;;;;;;;;5026938;28;20041;-59
2023/04/21 08:29:41;;;;;;;20.27;10.13;;;;;;;;;;5026653;28;20125;-59
2023/04/21 08:32:07;;;;;;;16.35;9.30;;;;;;;;;;5026478;28;20499;-59
2023/04/21 08:34:34;;;;;;;22.30;11.73;;;;;;;;;;5026479;28;20197;-59
2023/04/21 08:37:00;;;;;;;22.45;10.07;;;;;;;;;;5025518;28;20091;-60
2023/04/21 08:39:26;;;;;;;17.75;9.32;;;;;;;;;;5026794;28;20068;-59
2023/04/21 08:41:52;;;;;;;25.08;9.07;;;;;;;;;;5026459;28;20037;-59
2023/04/21 08:44:20;;;;;;;16.60;9.13;;;;;;;;;;5026375;28;20538;-60
2023/04/21 08:46:49;;;;;;;23.02;9.60;;;;;;;;;;5025688;28;20088;-59
2023/04/21 08:49:18;;;;;;;20.25;10.40;;;;;;;;;;5023153;28;20099;-59
2023/04/21 08:51:44;;;;;;;17.25;9.43;;;;;;;;;;5024311;28;20128;-59
2023/04/21 08:54:10;;;;;;;20.23;9.65;;;;;;;;;;5026277;28;20475;-59
2023/04/21 08:56:37;;;;;;;15.15;9.15;;;;;;;;;;5025599;28;20057;-60
2023/04/21 08:59:03;;;;;;;18.85;9.27;;;;;;;;;;5005220;28;20475;-59
2023/04/21 09:01:30;;;;;;;14.75;8.57;;;;;;;;;;5026136;28;20479;-60
2023/04/21 09:04:15;;;;;;;14.07;9.45;;;;;;;;;;5025455;28;20052;-60
2023/04/21 09:06:42;;;;;;;21.23;9.63;;;;;;;;;;5025192;28;20112;-59
2023/04/21 09:09:08;;;;;;;28.83;9.90;;;;;;;;;;5025563;28;20053;-60
2023/04/21 09:11:34;;;;;;;19.33;9.45;;;;;;;;;;5025627;28;20049;-59
2023/04/21 09:14:00;;;;;;;19.55;8.57;;;;;;;;;;5007644;28;20043;-60
2023/04/21 09:16:28;;;;;;;15.93;9.15;;;;;;;;;;5025661;28;20052;-59
2023/04/21 09:18:55;;;;;;;17.83;9.52;;;;;;;;;;5025667;28;20700;-60
2023/04/21 09:21:26;;;;;;;17.92;10.13;;;;;;;;;;5025537;28;20048;-60
2023/04/21 09:23:54;;;;;;;18.25;9.35;;;;;;;;;;5025692;28;20138;-59
2023/04/21 09:26:22;;;;;;;25.80;9.57;;;;;;;;;;5025837;28;20042;-60
2023/04/21 09:28:49;;;;;;;20.00;9.25;;;;;;;;;;5024917;28;20045;-60
2023/04/21 09:31:16;;;;;;;21.40;9.10;;;;;;;;;;5007465;28;20092;-59
2023/04/21 09:33:47;;;;;;;18.53;8.87;;;;;;;;;;5025436;28;20048;-59
2023/04/21 09:36:19;;;;;;;19.65;8.70;;;;;;;;;;5007205;28;20041;-59
2023/04/21 09:38:55;;;;;;;17.30;9.23;;;;;;;;;;5024917;28;20521;-59
2023/04/21 09:41:21;;;;;;;22.23;9.00;;;;;;;;;;5025304;28;20049;-59
2023/04/21 09:43:47;;;;;;;19.27;9.45;;;;;;;;;;5024984;28;20049;-59
2023/04/21 09:46:15;;;;;;;17.17;8.60;;;;;;;;;;5025283;28;20095;-59
2023/04/21 09:48:43;;;;;;;21.00;10.05;;;;;;;;;;5024657;28;20045;-60
2023/04/21 09:51:11;;;;;;;19.77;9.47;;;;;;;;;;5024596;28;20048;-59
2023/04/21 09:53:39;;;;;;;14.10;8.52;;;;;;;;;;5024685;28;20042;-59
2023/04/21 09:56:06;;;;;;;17.17;9.02;;;;;;;;;;5025032;28;20696;-59
2023/04/21 09:58:37;;;;;;;21.52;8.73;;;;;;;;;;5024839;28;20384;-59
2023/04/21 10:01:04;;;;;;;20.10;8.90;;;;;;;;;;5025037;28;20049;-59
2023/04/21 10:03:30;;;;;;;18.35;9.05;;;;;;;;;;5024440;28;20048;-59
2023/04/21 10:05:57;;;;;;;19.27;9.10;;;;;;;;;;5024364;28;20049;-59
2023/04/21 10:08:23;;;;;;;18.55;9.52;;;;;;;;;;5024881;28;20500;-59
2023/04/21 10:10:51;;;;;;;24.52;9.45;;;;;;;;;;5023827;28;20491;-60
2023/04/21 10:13:18;;;;;;;22.60;9.18;;;;;;;;;;5024461;28;20057;-59
2023/04/21 10:15:44;;;;;;;15.10;8.98;;;;;;;;;;5024515;28;20045;-59
2023/04/21 10:18:12;;;;;;;19.58;9.23;;;;;;;;;;5024397;28;20056;-59
2023/04/21 10:20:51;;;;;;;16.83;8.43;;;;;;;;;;5006002;28;20118;-60
2023/04/21 10:23:27;;;;;;;18.45;9.45;;;;;;;;;;5023771;28;20495;-60
2023/04/21 10:25:54;;;;;;;19.48;9.25;;;;;;;;;;5024168;28;20053;-60
2023/04/21 10:28:20;;;;;;;16.52;9.07;;;;;;;;;;5024164;28;20040;-60
2023/04/21 10:30:46;;;;;;;18.30;10.18;;;;;;;;;;5024265;28;20037;-60
2023/04/21 10:33:12;;;;;;;22.77;9.82;;;;;;;;;;5024506;28;20077;-60
2023/04/21 10:35:56;;;;;;;16.40;8.95;;;;;;;;;;5023261;28;20075;-60
2023/04/21 10:38:39;;;;;;;18.35;9.15;;;;;;;;;;5024066;28;20041;-59
2023/04/21 10:41:24;;;;;;;20.60;9.15;;;;;;;;;;5024216;28;20167;-60
2023/04/21 10:43:50;;;;;;;16.40;9.23;;;;;;;;;;5023282;28;20630;-60
2023/04/21 10:46:35;;;;;;;20.48;9.20;;;;;;;;;;5024179;28;20041;-60
2023/04/21 10:49:06;;;;;;;21.33;9.35;;;;;;;;;;5022973;28;20384;-60
2023/04/21 10:51:32;;;;;;;19.70;9.18;;;;;;;;;;5005311;28;20446;-60
2023/04/21 10:53:58;;;;;;;18.88;9.88;;;;;;;;;;5023055;28;20050;-60
2023/04/21 10:56:25;;;;;;;18.30;9.70;;;;;;;;;;5024367;28;20050;-60
2023/04/21 10:58:52;;;;;;;20.83;9.45;;;;;;;;;;5023344;28;20044;-60
2023/04/21 11:01:18;;;;;;;18.70;9.23;;;;;;;;;;5023870;28;20124;-60
2023/04/21 11:03:45;;;;;;;19.00;9.55;;;;;;;;;;5019530;28;20030;-60
2023/04/21 11:06:17;;;;;;;16.60;9.02;;;;;;;;;;5001783;28;20555;-60
2023/04/21 11:08:56;;;;;;;21.42;9.88;;;;;;;;;;5023064;28;20061;-60
2023/04/21 11:11:23;;;;;;;22.02;8.57;;;;;;;;;;5002628;28;20091;-60
2023/04/21 11:13:51;;;;;;;14.73;8.32;;;;;;;;;;5022329;28;20041;-60
2023/04/21 11:16:18;;;;;;;15.30;7.63;;;;;;;;;;5023406;28;20518;-62
2023/04/21 11:18:44;;;;;;;14.77;7.43;;;;;;;;;;5022952;28;20048;-61
2023/04/21 11:21:17;;;;;;;16.58;8.45;;;;;;;;;;5018663;28;20047;-62
2023/04/21 11:23:49;;;;;;;18.45;7.97;;;;;;;;;;5021689;28;20047;-59
2023/04/21 11:26:15;;;;;;;14.80;8.23;;;;;;;;;;5021845;28;20038;-59
2023/04/21 11:28:41;;;;;;;19.48;8.45;;;;;;;;;;5022979;28;20128;-59
2023/04/21 11:31:07;;;;;;;20.17;7.72;;;;;;;;;;5002010;28;20045;-60
2023/04/21 11:33:38;;;;;;;15.65;7.43;;;;;;;;;;5023091;28;20136;-60
2023/04/21 11:36:05;;;;;;;14.65;7.55;;;;;;;;;;5022428;28;20040;-60
2023/04/21 11:38:40;;;;;;;22.52;7.38;;;;;;;;;;5020960;28;20064;-60
2023/04/21 11:41:06;;;;;;;18.90;7.72;;;;;;;;;;5022066;28;20551;-59
2023/04/21 11:43:32;;;;;;;12.38;6.40;;;;;;;;;;5021136;28;20497;-60
2023/04/21 11:46:12;;;;;;;13.82;7.28;;;;;;;;;;5020841;28;20045;-60
2023/04/21 11:48:38;;;;;;;15.00;7.07;;;;;;;;;;5018645;28;20053;-58
2023/04/21 11:51:04;;;;;;;13.60;6.82;;;;;;;;;;5019538;28;20116;-58
2023/04/21 11:53:30;;;;;;;15.20;7.22;;;;;;;;;;5001820;28;20045;-58
2023/04/21 11:55:56;;;;;;;14.35;7.38;;;;;;;;;;5020738;28;20044;-58
2023/04/21 11:58:22;;;;;;;15.80;6.57;;;;;;;;;;5021689;28;20094;-58
2023/04/21 12:00:50;;;;;;;13.70;6.78;;;;;;;;;;5017648;28;20042;-61
2023/04/21 12:03:19;;;;;;;11.40;6.07;;;;;;;;;;5017968;28;20056;-58
2023/04/21 12:05:45;;;;;;;9.98;5.38;;;;;;;;;;5018823;28;20113;-58
2023/04/21 12:08:13;;;;;;;15.27;6.68;;;;;;;;;;5020832;28;20093;-58
2023/04/21 12:10:44;;;;;;;15.25;6.47;;;;;;;;;;5016997;28;20038;-58
2023/04/21 12:13:10;;;;;;;17.05;6.40;;;;;;;;;;5016749;28;20507;-58
2023/04/21 12:15:36;;;;;;;11.70;5.25;;;;;;;;;;5019797;28;20041;-59
2023/04/21 12:18:02;;;;;;;14.88;5.25;;;;;;;;;;5014317;28;20053;-58
2023/04/21 12:20:29;;;;;;;12.15;5.13;;;;;;;;;;5013770;28;20048;-60
2023/04/21 12:22:55;;;;;;;11.13;5.00;;;;;;;;;;5021426;28;20060;-59
2023/04/21 12:25:21;;;;;;;8.15;4.22;;;;;;;;;;5020930;28;20115;-58
2023/04/21 12:27:48;;;;;;;9.40;4.68;;;;;;;;;;5021343;28;20041;-58
2023/04/21 12:30:15;;;;;;;15.73;5.25;;;;;;;;;;5020755;28;20038;-60
2023/04/21 12:32:41;;;;;;;13.15;4.38;;;;;;;;;;5015445;28;20042;-60
2023/04/21 12:41:33;;;;;;;16.85;5.43;;;;;;;;;;5017083;28;20052;-60
2023/04/21 12:43:59;;;;;;;17.77;4.83;;;;;;;;;;5023453;28;20056;-61
2023/04/21 12:46:25;;;;;;;9.93;4.47;;;;;;;;;;5023343;28;20045;-61
2023/04/21 12:48:51;;;;;;;14.63;4.88;;;;;;;;;;5022344;28;20127;-61
2023/04/21 12:51:18;;;;;;;11.90;4.72;;;;;;;;;;5022715;28;20514;-61
2023/04/21 12:57:00;;;;;;;16.08;4.60;;;;;;;;;;5018616;28;20033;-61
2023/04/21 12:59:27;;;;;;;10.25;4.30;;;;;;;;;;5022313;28;20046;-61
2023/04/21 13:01:53;;;;;;;9.00;3.83;;;;;;;;;;5021053;28;20041;-61
2023/04/21 13:04:19;;;;;;;13.63;4.47;;;;;;;;;;5019684;28;20045;-61
2023/04/21 13:06:45;;;;;;;7.10;4.55;;;;;;;;;;5026051;28;20049;-60
2023/04/21 13:09:11;;;;;;;12.15;5.03;;;;;;;;;;5018908;28;20391;-60
2023/04/21 13:11:38;;;;;;;18.58;4.68;;;;;;;;;;5017339;28;20061;-60
2023/04/21 13:14:05;;;;;;;14.95;4.05;;;;;;;;;;5022854;28;20518;-60
2023/04/21 13:16:31;;;;;;;16.73;4.45;;;;;;;;;;5023015;28;20133;-60
2023/04/21 13:18:58;;;;;;;8.55;4.00;;;;;;;;;;5026175;28;20046;-61
2023/04/21 13:21:24;;;;;;;11.40;4.22;;;;;;;;;;5019414;28;20038;-60
2023/04/21 13:23:50;;;;;;;13.90;4.70;;;;;;;;;;5008669;28;20048;-60
2023/04/21 13:26:17;;;;;;;15.80;4.30;;;;;;;;;;5023126;28;20210;-59
2023/04/21 13:28:43;;;;;;;11.38;4.88;;;;;;;;;;5008734;28;20555;-59
2023/04/21 13:31:09;;;;;;;11.38;4.28;;;;;;;;;;5025441;28;20124;-59
2023/04/21 13:33:35;;;;;;;10.38;4.05;;;;;;;;;;5017545;28;20144;-61
2023/04/21 13:36:02;;;;;;;10.48;4.22;;;;;;;;;;5015949;28;20508;-60
2023/04/21 13:38:29;;;;;;;16.00;4.10;;;;;;;;;;5005053;28;20058;-60
2023/04/21 13:40:55;;;;;;;12.05;4.78;;;;;;;;;;5021797;28;20540;-60
2023/04/21 13:43:22;;;;;;;12.98;3.75;;;;;;;;;;5016429;28;20041;-60
2023/04/21 13:45:50;;;;;;;11.82;3.63;;;;;;;;;;5022751;28;20623;-59
2023/04/21 13:48:17;;;;;;;12.55;4.05;;;;;;;;;;5020278;28;20048;-60
2023/04/21 13:50:43;;;;;;;16.13;4.03;;;;;;;;;;5022203;28;20033;-60
2023/04/21 13:53:10;;;;;;;11.77;4.15;;;;;;;;;;5022908;28;20384;-60
2023/04/21 13:55:36;;;;;;;16.20;4.28;;;;;;;;;;5019542;28;20041;-61
2023/04/21 13:58:02;;;;;;;14.23;3.60;;;;;;;;;;5021298;28;20068;-60
2023/04/21 14:00:28;;;;;;;17.85;3.58;;;;;;;;;;5021258;28;20640;-61
2023/04/21 14:02:55;;;;;;;7.47;3.97;;;;;;;;;;5021628;28;20051;-61
2023/04/21 14:05:21;;;;;;;9.30;3.72;;;;;;;;;;5018522;28;20691;-61
2023/04/21 14:07:47;;;;;;;9.63;3.50;;;;;;;;;;5021039;28;20056;-60
2023/04/21 14:10:14;;;;;;;13.40;3.63;;;;;;;;;;5019687;28;20686;-61
2023/04/21 14:12:40;;;;;;;11.65;3.13;;;;;;;;;;5020526;28;20037;-60
2023/04/21 14:15:06;;;;;;;20.70;4.03;;;;;;;;;;5017086;28;20184;-61
2023/04/21 14:17:33;;;;;;;10.32;3.13;;;;;;;;;;5019972;28;20053;-61
2023/04/21 14:20:00;;;;;;;10.02;3.35;;;;;;;;;;5018448;28;20033;-60
2023/04/21 14:22:27;;;;;;;9.30;3.13;;;;;;;;;;5019960;28;20105;-60
2023/04/21 14:24:53;;;;;;;11.75;3.10;;;;;;;;;;5018810;28;20041;-61
2023/04/21 14:27:19;;;;;;;8.52;3.10;;;;;;;;;;5019570;28;20080;-61
2023/04/21 14:29:45;;;;;;;11.40;3.20;;;;;;;;;;5021072;28;20080;-61
2023/04/21 14:32:11;;;;;;;7.60;2.40;;;;;;;;;;5023563;28;20141;-61
2023/04/21 14:34:37;;;;;;;9.40;3.00;;;;;;;;;;5023788;28;20509;-61
2023/04/21 14:37:04;;;;;;;7.50;2.70;;;;;;;;;;5023712;28;20128;-61
2023/04/21 14:39:31;;;;;;;10.07;2.70;;;;;;;;;;5023709;28;20042;-61
2023/04/21 14:41:57;;;;;;;7.60;2.65;;;;;;;;;;5023434;28;20041;-60